createdAt,value
2022-09-01T00:00:41.513Z,26.10
2022-09-01T00:01:41.522Z,23.30
2022-09-01T00:02:41.529Z,24.10
2022-09-01T00:03:41.501Z,21.30
2022-09-01T00:04:41.543Z,22.40
2022-09-01T00:05:41.544Z,19.50
2022-09-01T00:06:41.511Z,19.70
2022-09-01T00:07:41.440Z,29.50
2022-09-01T00:08:41.429Z,30.10
2022-09-01T00:09:41.423Z,40.20
2022-09-01T00:10:41.434Z,35.50
2022-09-01T00:11:41.413Z,30.10
2022-09-01T00:12:41.433Z,25.50
2022-09-01T00:13:41.370Z,23.30
2022-09-01T00:14:41.739Z,25.60
2022-09-01T00:15:41.438Z,32.30
2022-09-01T00:16:41.351Z,20.90
2022-09-01T00:17:41.328Z,17.20
2022-09-01T00:18:41.329Z,17.70
2022-09-01T00:19:41.339Z,16.00
2022-09-01T00:20:41.305Z,17.00
2022-09-01T00:21:41.293Z,16.20
2022-09-01T00:22:41.287Z,14.00
2022-09-01T00:23:41.267Z,13.10
2022-09-01T00:24:41.269Z,14.10
2022-09-01T00:25:41.251Z,13.90
2022-09-01T00:26:41.235Z,14.10
2022-09-01T00:27:41.222Z,12.50
2022-09-01T00:28:41.223Z,14.90
2022-09-01T00:29:43.303Z,14.90
2022-09-01T00:30:41.254Z,13.70
2022-09-01T00:31:41.277Z,13.70
2022-09-01T00:32:41.170Z,11.90
2022-09-01T00:33:41.171Z,11.20
2022-09-01T00:34:41.156Z,10.50
2022-09-01T00:35:41.139Z,10.40
2022-09-01T00:36:41.168Z,10.40
2022-09-01T00:37:41.140Z,10.00
2022-09-01T00:38:41.106Z,11.20
2022-09-01T00:39:41.097Z,10.60
2022-09-01T00:40:41.158Z,11.50
2022-09-01T00:41:41.098Z,10.10
2022-09-01T00:42:41.090Z,9.80
2022-09-01T00:43:41.081Z,10.20
2022-09-01T00:44:41.047Z,10.10
2022-09-01T00:45:41.114Z,10.10
2022-09-01T00:46:47.751Z,11.50
2022-09-01T00:47:42.034Z,12.20
2022-09-01T00:48:41.000Z,12.50
2022-09-01T00:49:40.983Z,13.20
2022-09-01T00:50:40.977Z,12.80
2022-09-01T00:51:40.966Z,13.10
2022-09-01T00:52:40.970Z,12.50
2022-09-01T00:53:41.052Z,13.50
2022-09-01T00:54:40.933Z,13.20
2022-09-01T00:55:40.921Z,12.70
2022-09-01T00:56:40.920Z,12.00
2022-09-01T00:57:41.907Z,10.50
2022-09-01T00:58:40.895Z,10.60
2022-09-01T00:59:40.983Z,9.80
2022-09-01T01:00:40.887Z,11.20
2022-09-01T01:01:40.908Z,11.10
2022-09-01T01:02:40.905Z,12.20
2022-09-01T01:03:40.837Z,11.80
2022-09-01T01:04:40.835Z,12.50
2022-09-01T01:05:40.823Z,12.40
2022-09-01T01:06:40.809Z,13.30
2022-09-01T01:07:40.787Z,14.40
2022-09-01T01:08:40.781Z,14.10
2022-09-01T01:09:40.780Z,14.20
2022-09-01T01:10:40.762Z,14.20
2022-09-01T01:11:40.748Z,13.50
2022-09-01T01:12:40.771Z,14.10
2022-09-01T01:13:40.730Z,15.00
2022-09-01T01:14:40.720Z,14.60
2022-09-01T01:15:40.761Z,14.80
2022-09-01T01:16:40.753Z,14.20
2022-09-01T01:17:40.678Z,14.70
2022-09-01T01:18:40.698Z,15.90
2022-09-01T01:19:40.683Z,16.90
2022-09-01T01:20:40.660Z,16.10
2022-09-01T01:21:40.637Z,15.90
2022-09-01T01:22:40.637Z,15.50
2022-09-01T01:23:40.622Z,15.80
2022-09-01T01:24:40.615Z,15.10
2022-09-01T01:25:40.599Z,15.40
2022-09-01T01:26:40.602Z,15.60
2022-09-01T01:27:43.188Z,16.70
2022-09-01T01:28:40.575Z,15.50
2022-09-01T01:29:40.594Z,15.30
2022-09-01T01:30:40.607Z,15.40
2022-09-01T01:31:40.534Z,15.90
2022-09-01T01:32:40.539Z,15.80
2022-09-01T01:33:40.510Z,15.70
2022-09-01T01:34:40.498Z,15.60
2022-09-01T01:35:40.499Z,16.20
2022-09-01T01:36:40.491Z,16.60
2022-09-01T01:37:40.640Z,15.60
2022-09-01T01:38:40.482Z,15.20
2022-09-01T01:39:40.452Z,15.70
2022-09-01T01:40:40.545Z,15.30
2022-09-01T01:41:40.439Z,15.30
2022-09-01T01:42:40.461Z,17.70
2022-09-01T01:43:40.466Z,18.40
2022-09-01T01:44:40.413Z,17.90
2022-09-01T01:45:40.460Z,19.50
2022-09-01T01:46:40.368Z,20.60
2022-09-01T01:47:40.356Z,13.80
2022-09-01T01:48:40.392Z,12.70
2022-09-01T01:49:40.355Z,11.90
2022-09-01T01:50:40.323Z,9.40
2022-09-01T01:51:40.315Z,11.40
2022-09-01T01:52:40.316Z,10.50
2022-09-01T01:53:41.304Z,12.00
2022-09-01T01:54:40.309Z,11.50
2022-09-01T01:55:40.267Z,11.10
2022-09-01T01:56:40.294Z,9.90
2022-09-01T01:57:40.258Z,9.40
2022-09-01T01:58:40.245Z,8.70
2022-09-01T01:59:40.378Z,9.30
2022-09-01T02:00:40.221Z,9.60
2022-09-01T02:01:40.275Z,9.70
2022-09-01T02:02:40.315Z,8.50
2022-09-01T02:03:40.200Z,9.50
2022-09-01T02:04:40.204Z,9.70
2022-09-01T02:05:40.183Z,10.30
2022-09-01T02:06:40.155Z,10.60
2022-09-01T02:07:40.155Z,11.60
2022-09-01T02:08:40.133Z,11.90
2022-09-01T02:09:40.124Z,12.00
2022-09-01T02:10:40.141Z,10.60
2022-09-01T02:11:40.129Z,9.30
2022-09-01T02:12:40.094Z,6.60
2022-09-01T02:13:40.118Z,5.80
2022-09-01T02:14:40.081Z,5.30
2022-09-01T02:15:40.052Z,4.70
2022-09-01T02:16:40.105Z,4.80
2022-09-01T02:17:40.042Z,5.50
2022-09-01T02:19:59.040Z,4.50
2022-09-01T02:21:06.487Z,4.80
2022-09-01T02:21:58.917Z,5.10
2022-09-01T02:22:58.911Z,5.00
2022-09-01T02:23:59.029Z,5.00
2022-09-01T02:24:58.905Z,5.20
2022-09-01T02:26:15.717Z,5.40
2022-09-01T02:26:59.893Z,6.00
2022-09-01T02:27:58.864Z,6.20
2022-09-01T02:28:58.871Z,5.30
2022-09-01T02:29:58.834Z,5.80
2022-09-01T02:30:58.901Z,6.20
2022-09-01T02:31:58.887Z,6.30
2022-09-01T02:32:58.805Z,6.80
2022-09-01T02:33:58.800Z,7.00
2022-09-01T02:34:58.784Z,5.80
2022-09-01T02:35:58.820Z,5.30
2022-09-01T02:36:58.785Z,5.50
2022-09-01T02:37:58.772Z,5.60
2022-09-01T02:38:58.737Z,5.90
2022-09-01T02:39:58.736Z,6.00
2022-09-01T02:40:58.728Z,6.10
2022-09-01T02:41:58.748Z,5.90
2022-09-01T02:42:58.728Z,6.10
2022-09-01T02:43:58.692Z,6.60
2022-09-01T02:44:58.693Z,6.60
2022-09-01T02:45:58.745Z,6.10
2022-09-01T02:46:58.667Z,5.50
2022-09-01T02:47:58.654Z,5.30
2022-09-01T02:48:58.627Z,5.70
2022-09-01T02:49:58.625Z,4.90
2022-09-01T02:50:58.625Z,4.50
2022-09-01T02:51:58.593Z,4.90
2022-09-01T02:53:03.238Z,4.40
2022-09-01T02:53:59.576Z,4.40
2022-09-01T02:54:58.587Z,4.30
2022-09-01T02:55:58.558Z,4.60
2022-09-01T02:56:58.572Z,5.00
2022-09-01T02:57:58.541Z,4.30
2022-09-01T02:58:58.566Z,3.90
2022-09-01T02:59:58.514Z,4.10
2022-09-01T03:00:58.543Z,4.40
2022-09-01T03:01:58.490Z,4.40
2022-09-01T03:02:58.495Z,4.80
2022-09-01T03:03:58.596Z,5.70
2022-09-01T03:04:58.506Z,5.40
2022-09-01T03:05:58.483Z,6.10
2022-09-01T03:06:58.453Z,7.30
2022-09-01T03:07:58.435Z,7.40
2022-09-01T03:08:58.432Z,6.80
2022-09-01T03:09:58.423Z,6.30
2022-09-01T03:10:58.394Z,7.30
2022-09-01T03:11:58.387Z,6.90
2022-09-01T03:12:58.382Z,7.30
2022-09-01T03:13:58.392Z,7.70
2022-09-01T03:14:58.367Z,8.00
2022-09-01T03:15:58.346Z,7.70
2022-09-01T03:16:58.386Z,7.10
2022-09-01T03:17:58.397Z,6.30
2022-09-01T03:18:58.309Z,5.50
2022-09-01T03:19:58.293Z,5.60
2022-09-01T03:20:58.344Z,4.90
2022-09-01T03:21:58.295Z,4.70
2022-09-01T03:22:58.286Z,4.90
2022-09-01T03:23:58.328Z,5.20
2022-09-01T03:24:58.246Z,5.90
2022-09-01T03:25:58.412Z,5.60
2022-09-01T03:26:58.248Z,6.70
2022-09-01T03:27:58.208Z,6.50
2022-09-01T03:28:58.198Z,6.50
2022-09-01T03:29:58.187Z,6.10
2022-09-01T03:30:58.175Z,6.70
2022-09-01T03:31:58.297Z,6.70
2022-09-01T03:32:58.269Z,6.60
2022-09-01T03:33:58.142Z,8.80
2022-09-01T03:34:58.139Z,9.90
2022-09-01T03:35:58.122Z,6.40
2022-09-01T03:36:58.108Z,6.00
2022-09-01T03:37:58.123Z,5.50
2022-09-01T03:38:58.121Z,5.30
2022-09-01T03:39:58.159Z,5.70
2022-09-01T03:40:58.098Z,5.90
2022-09-01T03:41:58.060Z,6.30
2022-09-01T03:42:58.063Z,6.10
2022-09-01T03:43:58.082Z,5.50
2022-09-01T03:44:58.042Z,6.20
2022-09-01T03:45:58.099Z,11.10
2022-09-01T03:46:58.000Z,12.80
2022-09-01T03:47:57.992Z,15.00
2022-09-01T03:48:57.982Z,18.40
2022-09-01T03:49:57.978Z,21.30
2022-09-01T03:50:57.997Z,17.10
2022-09-01T03:51:57.963Z,17.90
2022-09-01T03:52:57.940Z,19.00
2022-09-01T03:53:59.118Z,16.70
2022-09-01T03:54:57.968Z,17.70
2022-09-01T03:55:57.951Z,17.70
2022-09-01T03:56:57.893Z,30.50
2022-09-01T03:57:57.891Z,37.50
2022-09-01T03:58:57.888Z,38.70
2022-09-01T03:59:57.871Z,33.70
2022-09-01T04:00:58.060Z,37.60
2022-09-01T04:01:57.971Z,44.30
2022-09-01T04:02:57.849Z,29.60
2022-09-01T04:03:57.825Z,41.70
2022-09-01T04:04:57.813Z,35.10
2022-09-01T04:05:57.818Z,33.20
2022-09-01T04:06:57.802Z,37.10
2022-09-01T04:07:57.805Z,34.10
2022-09-01T04:08:57.871Z,32.60
2022-09-01T04:09:57.768Z,34.70
2022-09-01T04:10:57.749Z,51.30
2022-09-01T04:11:57.794Z,49.60
2022-09-01T04:12:57.723Z,52.50
2022-09-01T04:13:57.740Z,46.80
2022-09-01T04:14:57.818Z,35.30
2022-09-01T04:15:57.697Z,43.20
2022-09-01T04:16:57.721Z,74.80
2022-09-01T04:17:57.677Z,51.70
2022-09-01T04:18:57.669Z,43.20
2022-09-01T04:19:57.673Z,61.10
2022-09-01T04:20:57.714Z,65.90
2022-09-01T04:21:57.681Z,62.60
2022-09-01T04:22:57.620Z,51.00
2022-09-01T04:23:57.609Z,56.90
2022-09-01T04:24:57.620Z,50.50
2022-09-01T04:25:57.608Z,55.20
2022-09-01T04:26:57.571Z,57.70
2022-09-01T04:27:57.590Z,52.40
2022-09-01T04:28:57.549Z,54.70
2022-09-01T04:29:57.979Z,57.20
2022-09-01T04:30:57.545Z,50.80
2022-09-01T04:31:57.612Z,58.90
2022-09-01T04:32:57.682Z,60.60
2022-09-01T04:33:57.517Z,64.10
2022-09-01T04:34:57.540Z,52.90
2022-09-01T04:35:57.475Z,50.10
2022-09-01T04:36:57.467Z,43.60
2022-09-01T04:37:57.469Z,42.40
2022-09-01T04:38:57.447Z,63.20
2022-09-01T04:39:57.740Z,52.80
2022-09-01T04:40:57.463Z,56.40
2022-09-01T04:41:57.419Z,55.30
2022-09-01T04:42:57.408Z,43.80
2022-09-01T04:43:57.420Z,56.50
2022-09-01T04:44:57.891Z,59.20
2022-09-01T04:45:57.451Z,50.60
2022-09-01T04:46:57.391Z,50.50
2022-09-01T04:47:57.345Z,41.10
2022-09-01T04:48:57.352Z,45.50
2022-09-01T04:49:57.345Z,47.30
2022-09-01T04:50:57.317Z,44.90
2022-09-01T04:51:57.309Z,47.90
2022-09-01T04:52:57.312Z,48.00
2022-09-01T04:53:57.375Z,38.60
2022-09-01T04:54:57.270Z,42.80
2022-09-01T04:55:57.285Z,39.00
2022-09-01T04:56:57.249Z,50.80
2022-09-01T04:57:57.239Z,45.40
2022-09-01T04:58:57.239Z,41.00
2022-09-01T04:59:57.224Z,42.90
2022-09-01T05:00:57.281Z,47.40
2022-09-01T05:01:57.242Z,46.50
2022-09-01T05:02:57.182Z,47.20
2022-09-01T05:03:57.173Z,49.00
2022-09-01T05:04:57.160Z,52.10
2022-09-01T05:05:57.161Z,46.80
2022-09-01T05:06:57.261Z,39.10
2022-09-01T05:07:57.138Z,47.10
2022-09-01T05:08:57.126Z,31.10
2022-09-01T05:10:01.062Z,41.00
2022-09-01T05:10:57.242Z,33.00
2022-09-01T05:11:57.093Z,28.90
2022-09-01T05:12:57.097Z,48.40
2022-09-01T05:13:57.068Z,28.80
2022-09-01T05:14:57.067Z,27.90
2022-09-01T05:15:57.082Z,28.10
2022-09-01T05:16:57.034Z,24.20
2022-09-01T05:17:57.028Z,24.10
2022-09-01T05:18:57.238Z,24.00
2022-09-01T05:19:57.055Z,24.00
2022-09-01T05:20:57.059Z,23.70
2022-09-01T05:21:56.996Z,22.80
2022-09-01T05:22:56.967Z,22.30
2022-09-01T05:23:56.959Z,21.60
2022-09-01T05:24:56.957Z,24.30
2022-09-01T05:25:56.975Z,34.30
2022-09-01T05:26:57.008Z,31.00
2022-09-01T05:27:57.004Z,31.10
2022-09-01T05:28:56.983Z,33.30
2022-09-01T05:29:57.115Z,35.00
2022-09-01T05:30:57.890Z,40.00
2022-09-01T05:31:56.924Z,44.30
2022-09-01T05:32:56.978Z,50.50
2022-09-01T05:33:56.879Z,46.50
2022-09-01T05:34:56.886Z,46.30
2022-09-01T05:35:56.832Z,50.70
2022-09-01T05:36:56.875Z,44.10
2022-09-01T05:37:56.929Z,39.50
2022-09-01T05:38:56.909Z,39.50
2022-09-01T05:39:56.915Z,36.60
2022-09-01T05:40:56.798Z,39.10
2022-09-01T05:41:56.868Z,36.70
2022-09-01T05:42:56.817Z,31.70
2022-09-01T05:44:00.511Z,33.20
2022-09-01T05:44:56.779Z,30.00
2022-09-01T05:46:06.641Z,29.00
2022-09-01T05:46:57.829Z,27.70
2022-09-01T05:47:56.771Z,26.20
2022-09-01T05:48:56.746Z,27.00
2022-09-01T05:49:56.710Z,30.10
2022-09-01T05:50:56.671Z,28.60
2022-09-01T05:51:56.671Z,38.40
2022-09-01T05:52:56.646Z,26.50
2022-09-01T05:53:56.645Z,31.00
2022-09-01T05:54:56.630Z,24.80
2022-09-01T05:55:56.736Z,23.40
2022-09-01T05:56:56.645Z,22.30
2022-09-01T05:57:56.617Z,23.10
2022-09-01T05:59:57.589Z,22.40
2022-09-01T06:00:56.588Z,23.90
2022-09-01T06:01:56.810Z,21.70
2022-09-01T06:02:56.689Z,23.40
2022-09-01T06:03:56.542Z,21.60
2022-09-01T06:04:56.513Z,21.60
2022-09-01T06:05:56.537Z,20.40
2022-09-01T06:07:13.638Z,21.90
2022-09-01T06:07:57.629Z,23.20
2022-09-01T06:08:56.491Z,21.80
2022-09-01T06:09:56.578Z,20.90
2022-09-01T06:10:56.454Z,23.20
2022-09-01T06:11:56.449Z,26.10
2022-09-01T06:12:56.430Z,42.00
2022-09-01T06:13:56.551Z,40.10
2022-09-01T06:14:56.432Z,34.20
2022-09-01T06:15:56.448Z,43.30
2022-09-01T06:16:56.428Z,40.50
2022-09-01T06:17:56.413Z,37.30
2022-09-01T06:18:56.371Z,44.50
2022-09-01T06:19:56.453Z,50.90
2022-09-01T06:20:56.376Z,49.50
2022-09-01T06:21:56.341Z,49.40
2022-09-01T06:22:56.332Z,45.80
2022-09-01T06:23:56.319Z,48.70
2022-09-01T06:25:01.020Z,45.60
2022-09-01T06:25:57.286Z,58.00
2022-09-01T06:26:56.306Z,61.20
2022-09-01T06:27:56.288Z,57.20
2022-09-01T06:28:56.294Z,45.80
2022-09-01T06:29:56.328Z,38.10
2022-09-01T06:30:56.458Z,31.30
2022-09-01T06:31:57.224Z,28.60
2022-09-01T06:32:56.226Z,51.70
2022-09-01T06:33:56.348Z,38.70
2022-09-01T06:34:56.197Z,34.70
2022-09-01T06:35:56.206Z,40.20
2022-09-01T06:36:56.257Z,53.30
2022-09-01T06:37:56.168Z,43.90
2022-09-01T06:38:56.327Z,33.40
2022-09-01T06:39:56.376Z,25.40
2022-09-01T06:40:56.166Z,25.30
2022-09-01T06:41:56.114Z,22.00
2022-09-01T06:42:56.115Z,20.60
2022-09-01T06:43:56.083Z,19.70
2022-09-01T06:44:56.087Z,20.20
2022-09-01T06:45:56.112Z,20.60
2022-09-01T06:46:56.137Z,28.10
2022-09-01T06:47:59.312Z,31.00
2022-09-01T06:48:56.031Z,22.50
2022-09-01T06:49:58.047Z,36.90
2022-09-01T06:51:57.019Z,37.00
2022-09-01T06:53:57.273Z,25.70
2022-09-01T06:54:55.957Z,19.10
2022-09-01T06:55:55.955Z,23.60
2022-09-01T06:56:55.938Z,23.10
2022-09-01T06:58:03.954Z,20.90
2022-09-01T06:58:56.919Z,23.50
2022-09-01T06:59:55.947Z,19.20
2022-09-01T07:00:55.893Z,21.90
2022-09-01T07:02:01.369Z,19.40
2022-09-01T07:02:57.129Z,18.90
2022-09-01T07:03:55.868Z,20.00
2022-09-01T07:04:56.009Z,19.50
2022-09-01T07:07:01.253Z,42.20
2022-09-01T07:08:12.108Z,44.00
2022-09-01T07:13:12.169Z,36.20
2022-09-01T07:17:23.309Z,17.80
2022-09-01T07:17:56.778Z,18.20
2022-09-01T07:18:59.014Z,17.00
2022-09-01T07:19:55.824Z,16.90
2022-09-01T07:21:07.039Z,15.30
2022-09-01T07:22:35.619Z,16.10
2022-09-01T07:23:04.725Z,15.80
2022-09-01T07:24:12.108Z,16.00
2022-09-01T07:25:11.939Z,14.40
2022-09-01T07:26:04.375Z,14.70
2022-09-01T07:26:56.620Z,14.80
2022-09-01T07:27:55.613Z,14.30
2022-09-01T07:29:04.273Z,13.90
2022-09-01T07:29:56.582Z,13.80
2022-09-01T07:30:55.570Z,13.10
2022-09-01T07:32:56.549Z,14.80
2022-09-01T07:34:37.693Z,15.00
2022-09-01T07:34:56.662Z,19.10
2022-09-01T07:38:47.293Z,15.70
2022-09-01T07:39:56.712Z,20.80
2022-09-01T07:42:31.115Z,22.10
2022-09-01T07:43:00.046Z,21.60
2022-09-01T07:43:11.821Z,15.90
2022-09-01T07:43:56.432Z,15.70
2022-09-01T07:44:55.448Z,16.20
2022-09-01T07:45:59.117Z,14.60
2022-09-01T07:47:56.512Z,14.60
2022-09-01T07:49:28.889Z,14.10
2022-09-01T07:50:25.015Z,14.30
2022-09-01T07:51:56.477Z,14.00
2022-09-01T07:52:55.344Z,13.10
2022-09-01T07:53:55.376Z,12.80
2022-09-01T07:54:55.324Z,13.40
2022-09-01T07:55:55.328Z,11.20
2022-09-01T07:56:55.330Z,9.80
2022-09-01T07:57:55.306Z,10.20
2022-09-01T07:58:55.336Z,11.60
2022-09-01T07:59:55.273Z,10.90
2022-09-01T08:00:55.254Z,11.40
2022-09-01T08:01:55.308Z,9.90
2022-09-01T08:02:57.200Z,8.70
2022-09-01T08:03:55.218Z,8.40
2022-09-01T08:04:55.234Z,8.80
2022-09-01T08:05:55.193Z,9.30
2022-09-01T08:06:55.185Z,9.70
2022-09-01T08:07:55.180Z,8.90
2022-09-01T08:08:57.008Z,8.90
2022-09-01T08:09:56.083Z,9.10
2022-09-01T08:11:03.989Z,8.40
2022-09-01T08:12:02.037Z,8.80
2022-09-01T08:12:56.622Z,8.50
2022-09-01T08:13:55.107Z,8.00
2022-09-01T08:16:56.244Z,7.80
2022-09-01T08:17:55.118Z,7.70
2022-09-01T08:18:55.098Z,7.50
2022-09-01T08:19:55.358Z,7.20
2022-09-01T08:20:55.145Z,7.10
2022-09-01T08:21:55.048Z,7.20
2022-09-01T08:22:55.051Z,7.20
2022-09-01T08:23:55.034Z,7.10
2022-09-01T08:24:54.992Z,6.70
2022-09-01T08:25:55.009Z,6.80
2022-09-01T08:26:54.967Z,6.60
2022-09-01T08:28:01.909Z,6.20
2022-09-01T08:28:55.982Z,5.90
2022-09-01T08:29:54.943Z,6.00
2022-09-01T08:30:54.942Z,5.50
2022-09-01T08:31:54.949Z,5.70
2022-09-01T08:32:54.956Z,5.30
2022-09-01T08:33:54.929Z,5.60
2022-09-01T08:34:54.884Z,5.20
2022-09-01T08:35:54.893Z,5.30
2022-09-01T08:36:54.855Z,5.30
2022-09-01T08:37:54.949Z,5.00
2022-09-01T08:38:54.846Z,4.90
2022-09-01T08:39:55.292Z,4.90
2022-09-01T08:40:56.585Z,4.90
2022-09-01T08:41:54.874Z,4.70
2022-09-01T08:42:54.814Z,4.40
2022-09-01T08:43:54.791Z,4.30
2022-09-01T08:44:54.769Z,4.40
2022-09-01T08:45:54.859Z,3.70
2022-09-01T08:46:54.799Z,4.00
2022-09-01T08:48:22.552Z,3.70
2022-09-01T08:49:55.745Z,3.70
2022-09-01T08:50:55.099Z,3.80
2022-09-01T08:51:54.702Z,3.70
2022-09-01T08:52:54.725Z,3.70
2022-09-01T08:53:54.748Z,3.80
2022-09-01T08:54:54.679Z,3.70
2022-09-01T08:55:54.693Z,3.60
2022-09-01T08:56:54.667Z,3.50
2022-09-01T08:57:59.012Z,3.40
2022-09-01T08:58:56.118Z,3.10
2022-09-01T08:59:54.612Z,3.30
2022-09-01T09:00:55.088Z,3.70
2022-09-01T09:01:54.841Z,3.30
2022-09-01T09:02:54.637Z,3.40
2022-09-01T09:03:54.581Z,3.30
2022-09-01T09:04:54.569Z,3.30
2022-09-01T09:05:54.554Z,3.60
2022-09-01T09:06:54.536Z,3.60
2022-09-01T09:08:06.506Z,3.10
2022-09-01T09:08:55.510Z,3.00
2022-09-01T09:09:54.518Z,3.10
2022-09-01T09:10:54.512Z,2.80
2022-09-01T09:11:54.490Z,2.70
2022-09-01T09:12:54.474Z,2.90
2022-09-01T09:13:54.465Z,2.70
2022-09-01T09:14:54.488Z,2.80
2022-09-01T09:16:07.387Z,2.60
2022-09-01T09:16:55.432Z,2.80
2022-09-01T09:17:59.612Z,2.70
2022-09-01T09:18:56.225Z,2.50
2022-09-01T09:19:54.404Z,2.80
2022-09-01T09:20:54.409Z,2.90
2022-09-01T09:21:54.407Z,2.90
2022-09-01T09:22:54.364Z,2.50
2022-09-01T09:23:55.886Z,2.50
2022-09-01T09:24:54.345Z,2.60
2022-09-01T09:25:54.335Z,2.60
2022-09-01T09:26:54.437Z,3.00
2022-09-01T09:28:01.525Z,2.70
2022-09-01T09:28:55.296Z,2.50
2022-09-01T09:29:54.278Z,2.80
2022-09-01T09:30:54.345Z,2.80
2022-09-01T09:31:54.263Z,2.60
2022-09-01T09:33:44.302Z,2.60
2022-09-01T09:33:55.587Z,2.50
2022-09-01T09:34:54.226Z,2.70
2022-09-01T09:35:54.214Z,2.60
2022-09-01T09:36:57.031Z,2.50
2022-09-01T09:37:54.197Z,2.10
2022-09-01T09:38:54.197Z,2.40
2022-09-01T09:39:54.188Z,2.20
2022-09-01T09:41:14.359Z,2.10
2022-09-01T09:41:55.202Z,2.40
2022-09-01T09:42:54.140Z,2.20
2022-09-01T09:43:54.163Z,2.30
2022-09-01T09:44:54.122Z,2.20
2022-09-01T09:45:54.166Z,2.10
2022-09-01T09:46:54.134Z,2.20
2022-09-01T09:47:54.099Z,2.20
2022-09-01T09:48:54.094Z,2.00
2022-09-01T09:49:54.066Z,2.10
2022-09-01T09:50:54.067Z,1.90
2022-09-01T09:51:54.084Z,1.80
2022-09-01T09:52:54.030Z,2.00
2022-09-01T09:53:54.355Z,1.90
2022-09-01T09:54:54.018Z,1.70
2022-09-01T09:55:56.212Z,2.00
2022-09-01T09:56:53.982Z,1.90
2022-09-01T09:57:53.981Z,1.80
2022-09-01T09:58:53.973Z,1.90
2022-09-01T10:00:00.398Z,1.70
2022-09-01T10:00:55.001Z,1.60
2022-09-01T10:01:53.926Z,1.70
2022-09-01T10:02:54.002Z,1.80
2022-09-01T10:03:53.950Z,1.50
2022-09-01T10:04:55.903Z,1.80
2022-09-01T10:05:53.935Z,1.70
2022-09-01T10:06:53.891Z,1.70
2022-09-01T10:07:53.872Z,1.80
2022-09-01T10:08:53.903Z,1.80
2022-09-01T10:09:53.846Z,1.70
2022-09-01T10:10:58.435Z,1.60
2022-09-01T10:11:53.849Z,1.80
2022-09-01T10:12:53.824Z,1.70
2022-09-01T10:13:53.846Z,1.80
2022-09-01T10:14:53.857Z,1.70
2022-09-01T10:15:53.785Z,1.70
2022-09-01T10:16:53.863Z,1.70
2022-09-01T10:18:19.698Z,1.60
2022-09-01T10:18:54.753Z,1.70
2022-09-01T10:19:53.749Z,1.80
2022-09-01T10:20:53.771Z,1.80
2022-09-01T10:21:53.719Z,1.90
2022-09-01T10:22:53.721Z,1.90
2022-09-01T10:23:53.965Z,1.80
2022-09-01T10:24:53.697Z,1.70
2022-09-01T10:25:53.690Z,1.80
2022-09-01T10:26:53.737Z,1.40
2022-09-01T10:27:55.051Z,1.70
2022-09-01T10:28:53.650Z,1.60
2022-09-01T10:30:12.219Z,1.70
2022-09-01T10:30:54.844Z,1.60
2022-09-01T10:32:14.799Z,1.50
2022-09-01T10:32:56.489Z,1.50
2022-09-01T10:33:53.596Z,1.40
2022-09-01T10:34:53.579Z,1.50
2022-09-01T10:35:53.575Z,1.40
2022-09-01T10:36:55.736Z,1.40
2022-09-01T10:37:53.559Z,1.40
2022-09-01T10:39:00.042Z,1.40
2022-09-01T10:39:54.574Z,1.40
2022-09-01T10:40:53.553Z,1.30
2022-09-01T10:42:00.165Z,1.50
2022-09-01T10:42:54.538Z,1.40
2022-09-01T10:43:54.027Z,1.50
2022-09-01T10:44:53.478Z,1.40
2022-09-01T10:45:58.701Z,1.60
2022-09-01T10:46:59.954Z,1.50
2022-09-01T10:47:54.503Z,1.40
2022-09-01T10:48:55.732Z,1.30
2022-09-01T10:49:53.416Z,1.40
2022-09-01T10:50:53.429Z,1.30
2022-09-01T10:51:56.461Z,1.50
2022-09-01T10:52:53.760Z,1.40
2022-09-01T10:53:53.376Z,1.50
2022-09-01T10:54:55.561Z,1.40
2022-09-01T10:55:59.031Z,1.40
2022-09-01T10:56:54.365Z,1.30
2022-09-01T10:57:53.338Z,1.20
2022-09-01T10:59:56.776Z,1.40
2022-09-01T11:02:23.136Z,1.60
2022-09-01T11:02:54.336Z,1.50
2022-09-01T11:03:53.559Z,1.50
2022-09-01T11:04:53.357Z,1.30
2022-09-01T11:05:59.644Z,1.40
2022-09-01T11:08:02.504Z,1.40
2022-09-01T11:08:54.226Z,1.40
2022-09-01T11:09:57.348Z,1.30
2022-09-01T11:10:53.287Z,1.50
2022-09-01T11:11:53.181Z,1.30
2022-09-01T11:12:53.170Z,1.30
2022-09-01T11:13:53.193Z,1.30
2022-09-01T11:14:53.157Z,1.40
2022-09-01T11:15:53.164Z,1.20
2022-09-01T11:16:53.281Z,1.40
2022-09-01T11:17:53.186Z,1.30
2022-09-01T11:18:53.105Z,1.40
2022-09-01T11:19:53.175Z,1.40
2022-09-01T11:20:53.090Z,1.50
2022-09-01T11:21:53.105Z,1.50
2022-09-01T11:22:53.110Z,1.20
2022-09-01T11:23:53.090Z,1.40
2022-09-01T11:25:00.330Z,1.30
2022-09-01T11:26:54.039Z,1.30
2022-09-01T11:27:53.124Z,1.30
2022-09-01T11:28:54.018Z,1.20
2022-09-01T11:29:53.024Z,1.20
2022-09-01T11:30:53.137Z,7.90
2022-09-01T11:33:14.011Z,1.30
2022-09-01T11:34:13.987Z,3.10
2022-09-01T11:35:13.736Z,1.30
2022-09-01T11:36:14.341Z,1.20
2022-09-01T11:38:35.714Z,1.30
2022-09-01T11:39:34.574Z,1.30
2022-09-01T11:40:34.578Z,1.00
2022-09-01T11:41:34.514Z,1.30
2022-09-01T11:42:34.455Z,1.30
2022-09-01T11:43:34.433Z,1.20
2022-09-01T11:44:34.349Z,1.20
2022-09-01T11:45:34.480Z,1.20
2022-09-01T11:46:34.414Z,1.10
2022-09-01T11:47:34.331Z,1.10
2022-09-01T11:48:34.504Z,1.40
2022-09-01T11:49:34.289Z,1.20
2022-09-01T11:50:34.310Z,1.30
2022-09-01T11:51:34.291Z,1.20
2022-09-01T11:52:34.263Z,1.00
2022-09-01T11:53:34.262Z,1.10
2022-09-01T11:54:34.288Z,1.10
2022-09-01T11:55:34.538Z,1.20
2022-09-01T11:56:34.221Z,1.20
2022-09-01T11:57:34.241Z,1.20
2022-09-01T11:58:34.203Z,1.20
2022-09-01T11:59:34.179Z,1.10
2022-09-01T12:00:34.185Z,1.10
2022-09-01T12:01:34.177Z,1.30
2022-09-01T12:02:36.634Z,1.00
2022-09-01T12:03:34.227Z,1.10
2022-09-01T12:04:34.223Z,1.20
2022-09-01T12:05:35.126Z,1.20
2022-09-01T12:06:34.113Z,0.90
2022-09-01T12:07:34.104Z,1.10
2022-09-01T12:08:34.097Z,1.10
2022-09-01T12:09:34.269Z,1.10
2022-09-01T12:10:34.141Z,1.10
2022-09-01T12:11:35.151Z,1.10
2022-09-01T12:12:34.045Z,1.20
2022-09-01T12:13:34.040Z,1.10
2022-09-01T12:14:55.053Z,1.00
2022-09-01T12:15:35.054Z,1.10
2022-09-01T12:16:34.149Z,1.10
2022-09-01T12:17:33.982Z,1.10
2022-09-01T12:18:34.009Z,1.10
2022-09-01T12:19:33.980Z,1.10
2022-09-01T12:20:34.090Z,0.90
2022-09-01T12:21:33.935Z,1.10
2022-09-01T12:22:33.929Z,1.10
2022-09-01T12:23:33.970Z,1.10
2022-09-01T12:24:34.018Z,1.20
2022-09-01T12:25:33.977Z,1.10
2022-09-01T12:26:33.904Z,1.00
2022-09-01T12:27:33.875Z,1.00
2022-09-01T12:28:33.897Z,1.10
2022-09-01T12:29:33.857Z,1.00
2022-09-01T12:30:33.851Z,1.00
2022-09-01T12:31:33.859Z,0.90
2022-09-01T12:32:33.934Z,1.00
2022-09-01T12:33:33.877Z,1.00
2022-09-01T12:34:33.800Z,1.10
2022-09-01T12:35:33.871Z,1.10
2022-09-01T12:36:33.822Z,1.10
2022-09-01T12:37:33.777Z,1.10
2022-09-01T12:38:33.770Z,1.00
2022-09-01T12:39:33.912Z,1.20
2022-09-01T12:40:33.767Z,1.20
2022-09-01T12:41:33.737Z,1.10
2022-09-01T12:42:41.453Z,1.30
2022-09-01T12:43:34.706Z,1.10
2022-09-01T12:44:33.712Z,1.30
2022-09-01T12:45:34.277Z,1.20
2022-09-01T12:46:33.683Z,1.20
2022-09-01T12:47:33.663Z,1.40
2022-09-01T12:48:33.637Z,1.20
2022-09-01T12:49:33.654Z,1.20
2022-09-01T12:50:33.623Z,1.10
2022-09-01T12:51:33.601Z,1.20
2022-09-01T12:52:33.593Z,1.20
2022-09-01T12:53:36.745Z,1.10
2022-09-01T12:54:33.622Z,1.30
2022-09-01T12:55:49.024Z,1.30
2022-09-01T12:56:34.546Z,1.20
2022-09-01T12:57:33.529Z,1.20
2022-09-01T12:58:33.515Z,1.00
2022-09-01T12:59:37.401Z,1.00
2022-09-01T13:00:33.529Z,1.10
2022-09-01T13:01:33.641Z,1.30
2022-09-01T13:02:33.695Z,1.30
2022-09-01T13:03:34.771Z,1.30
2022-09-01T13:04:33.492Z,1.20
2022-09-01T13:05:39.451Z,1.30
2022-09-01T13:06:34.473Z,1.10
2022-09-01T13:07:33.424Z,1.30
2022-09-01T13:08:33.437Z,1.20
2022-09-01T13:09:33.403Z,1.10
2022-09-01T13:10:33.386Z,1.10
2022-09-01T13:12:34.367Z,1.00
2022-09-01T13:13:33.362Z,1.10
2022-09-01T13:14:33.341Z,1.10
2022-09-01T13:15:33.343Z,1.00
2022-09-01T13:16:33.370Z,1.20
2022-09-01T13:17:33.338Z,1.20
2022-09-01T13:19:09.922Z,1.10
2022-09-01T13:19:34.288Z,1.00
2022-09-01T13:20:33.276Z,1.00
2022-09-01T13:21:33.310Z,1.20
2022-09-01T13:22:33.261Z,1.00
2022-09-01T13:23:33.270Z,1.00
2022-09-01T13:24:33.285Z,1.10
2022-09-01T13:25:33.223Z,1.00
2022-09-01T13:26:33.212Z,1.10
2022-09-01T13:27:33.211Z,1.10
2022-09-01T13:28:34.485Z,1.10
2022-09-01T13:29:33.252Z,1.00
2022-09-01T13:30:33.182Z,1.10
2022-09-01T13:31:34.162Z,1.10
2022-09-01T13:32:33.508Z,1.10
2022-09-01T13:34:09.327Z,1.20
2022-09-01T13:34:34.183Z,1.20
2022-09-01T13:35:33.127Z,1.20